sensor_id;sensor_type;location;lat;lon;timestamp;P1;durP1;ratioP1;P2;durP2;ratioP2
9739;SDS011;4909;42.680;26.324;2023-10-19T00:00:31;119.97;;;100.43;;
9739;SDS011;4909;42.680;26.324;2023-10-19T00:03:00;122.67;;;98.07;;
9739;SDS011;4909;42.680;26.324;2023-10-19T00:05:28;119.37;;;99.00;;
9739;SDS011;4909;42.680;26.324;2023-10-19T00:07:57;118.93;;;98.33;;
9739;SDS011;4909;42.680;26.324;2023-10-19T00:10:25;117.27;;;99.83;;
9739;SDS011;4909;42.680;26.324;2023-10-19T00:12:58;117.53;;;98.40;;
9739;SDS011;4909;42.680;26.324;2023-10-19T00:15:28;112.70;;;95.50;;
9739;SDS011;4909;42.680;26.324;2023-10-19T00:17:57;115.23;;;97.23;;
9739;SDS011;4909;42.680;26.324;2023-10-19T00:20:32;117.17;;;97.57;;
9739;SDS011;4909;42.680;26.324;2023-10-19T00:23:14;112.60;;;93.77;;
9739;SDS011;4909;42.680;26.324;2023-10-19T00:25:43;116.97;;;95.97;;
9739;SDS011;4909;42.680;26.324;2023-10-19T00:28:16;118.10;;;98.30;;
9739;SDS011;4909;42.680;26.324;2023-10-19T00:30:43;113.90;;;94.67;;
9739;SDS011;4909;42.680;26.324;2023-10-19T00:33:10;110.03;;;94.53;;
9739;SDS011;4909;42.680;26.324;2023-10-19T00:35:44;109.83;;;95.87;;
9739;SDS011;4909;42.680;26.324;2023-10-19T00:38:15;112.20;;;99.23;;
9739;SDS011;4909;42.680;26.324;2023-10-19T00:41:04;112.23;;;97.80;;
9739;SDS011;4909;42.680;26.324;2023-10-19T00:43:32;114.50;;;95.60;;
9739;SDS011;4909;42.680;26.324;2023-10-19T00:46:02;117.10;;;95.93;;
9739;SDS011;4909;42.680;26.324;2023-10-19T00:48:34;112.57;;;91.73;;
9739;SDS011;4909;42.680;26.324;2023-10-19T00:51:03;114.97;;;94.57;;
9739;SDS011;4909;42.680;26.324;2023-10-19T00:53:35;113.17;;;93.17;;
9739;SDS011;4909;42.680;26.324;2023-10-19T00:56:04;114.17;;;91.67;;
9739;SDS011;4909;42.680;26.324;2023-10-19T00:58:35;113.27;;;95.23;;
9739;SDS011;4909;42.680;26.324;2023-10-19T01:01:04;113.77;;;94.80;;
9739;SDS011;4909;42.680;26.324;2023-10-19T01:03:32;115.90;;;94.70;;
9739;SDS011;4909;42.680;26.324;2023-10-19T01:06:04;112.67;;;93.70;;
9739;SDS011;4909;42.680;26.324;2023-10-19T01:08:36;115.10;;;93.40;;
9739;SDS011;4909;42.680;26.324;2023-10-19T01:11:10;114.37;;;93.57;;
9739;SDS011;4909;42.680;26.324;2023-10-19T01:13:40;115.77;;;94.73;;
9739;SDS011;4909;42.680;26.324;2023-10-19T01:16:13;114.17;;;94.57;;
9739;SDS011;4909;42.680;26.324;2023-10-19T01:18:48;111.13;;;91.90;;
9739;SDS011;4909;42.680;26.324;2023-10-19T01:21:21;110.77;;;90.80;;
9739;SDS011;4909;42.680;26.324;2023-10-19T01:23:54;113.30;;;94.60;;
9739;SDS011;4909;42.680;26.324;2023-10-19T01:26:21;116.67;;;92.80;;
9739;SDS011;4909;42.680;26.324;2023-10-19T01:28:51;121.37;;;93.87;;
9739;SDS011;4909;42.680;26.324;2023-10-19T01:31:23;116.30;;;96.10;;
9739;SDS011;4909;42.680;26.324;2023-10-19T01:33:56;108.67;;;88.97;;
9739;SDS011;4909;42.680;26.324;2023-10-19T01:36:24;115.77;;;93.83;;
9739;SDS011;4909;42.680;26.324;2023-10-19T01:38:50;113.77;;;93.03;;
9739;SDS011;4909;42.680;26.324;2023-10-19T01:41:21;114.90;;;94.47;;
9739;SDS011;4909;42.680;26.324;2023-10-19T01:43:49;112.70;;;93.77;;
9739;SDS011;4909;42.680;26.324;2023-10-19T01:46:18;113.03;;;93.57;;
9739;SDS011;4909;42.680;26.324;2023-10-19T01:48:50;111.63;;;88.33;;
9739;SDS011;4909;42.680;26.324;2023-10-19T01:51:20;109.33;;;88.50;;
9739;SDS011;4909;42.680;26.324;2023-10-19T01:53:48;111.60;;;93.53;;
9739;SDS011;4909;42.680;26.324;2023-10-19T01:56:16;109.87;;;86.67;;
9739;SDS011;4909;42.680;26.324;2023-10-19T01:58:44;109.40;;;89.73;;
9739;SDS011;4909;42.680;26.324;2023-10-19T02:01:13;106.90;;;86.90;;
9739;SDS011;4909;42.680;26.324;2023-10-19T02:03:45;106.47;;;87.83;;
9739;SDS011;4909;42.680;26.324;2023-10-19T02:06:14;107.37;;;88.83;;
9739;SDS011;4909;42.680;26.324;2023-10-19T02:08:45;109.70;;;91.53;;
9739;SDS011;4909;42.680;26.324;2023-10-19T02:11:15;107.23;;;92.60;;
9739;SDS011;4909;42.680;26.324;2023-10-19T02:13:46;104.57;;;85.50;;
9739;SDS011;4909;42.680;26.324;2023-10-19T02:16:13;105.30;;;92.37;;
9739;SDS011;4909;42.680;26.324;2023-10-19T02:18:42;107.97;;;88.73;;
9739;SDS011;4909;42.680;26.324;2023-10-19T02:21:09;105.80;;;89.03;;
9739;SDS011;4909;42.680;26.324;2023-10-19T02:23:38;108.27;;;89.23;;
9739;SDS011;4909;42.680;26.324;2023-10-19T02:26:07;106.60;;;85.90;;
9739;SDS011;4909;42.680;26.324;2023-10-19T02:28:33;111.23;;;88.17;;
9739;SDS011;4909;42.680;26.324;2023-10-19T02:31:04;105.43;;;86.63;;
9739;SDS011;4909;42.680;26.324;2023-10-19T02:33:37;103.70;;;86.20;;
9739;SDS011;4909;42.680;26.324;2023-10-19T02:36:04;104.33;;;86.90;;
9739;SDS011;4909;42.680;26.324;2023-10-19T02:38:38;101.17;;;85.50;;
9739;SDS011;4909;42.680;26.324;2023-10-19T02:41:04;103.03;;;84.67;;
9739;SDS011;4909;42.680;26.324;2023-10-19T02:43:31;108.13;;;86.77;;
9739;SDS011;4909;42.680;26.324;2023-10-19T02:45:58;106.93;;;91.70;;
9739;SDS011;4909;42.680;26.324;2023-10-19T02:48:26;101.80;;;84.27;;
9739;SDS011;4909;42.680;26.324;2023-10-19T02:50:52;105.87;;;87.03;;
9739;SDS011;4909;42.680;26.324;2023-10-19T02:53:19;106.43;;;89.47;;
9739;SDS011;4909;42.680;26.324;2023-10-19T02:55:46;103.93;;;87.37;;
9739;SDS011;4909;42.680;26.324;2023-10-19T02:58:16;102.47;;;87.13;;
9739;SDS011;4909;42.680;26.324;2023-10-19T03:00:42;103.77;;;86.97;;
9739;SDS011;4909;42.680;26.324;2023-10-19T03:03:11;105.20;;;87.10;;
9739;SDS011;4909;42.680;26.324;2023-10-19T03:05:38;103.87;;;86.57;;
9739;SDS011;4909;42.680;26.324;2023-10-19T03:08:06;99.57;;;85.03;;
9739;SDS011;4909;42.680;26.324;2023-10-19T03:10:32;101.07;;;84.67;;
9739;SDS011;4909;42.680;26.324;2023-10-19T03:13:07;103.27;;;86.17;;
9739;SDS011;4909;42.680;26.324;2023-10-19T03:15:33;101.73;;;83.37;;
9739;SDS011;4909;42.680;26.324;2023-10-19T03:18:00;100.53;;;87.80;;
9739;SDS011;4909;42.680;26.324;2023-10-19T03:20:27;101.63;;;86.37;;
9739;SDS011;4909;42.680;26.324;2023-10-19T03:22:55;100.80;;;85.77;;
9739;SDS011;4909;42.680;26.324;2023-10-19T03:25:26;100.73;;;85.80;;
9739;SDS011;4909;42.680;26.324;2023-10-19T03:28:16;98.60;;;83.17;;
9739;SDS011;4909;42.680;26.324;2023-10-19T03:30:44;100.37;;;84.70;;
9739;SDS011;4909;42.680;26.324;2023-10-19T03:33:12;101.10;;;87.00;;
9739;SDS011;4909;42.680;26.324;2023-10-19T03:35:42;102.03;;;88.77;;
9739;SDS011;4909;42.680;26.324;2023-10-19T03:38:10;102.17;;;86.07;;
9739;SDS011;4909;42.680;26.324;2023-10-19T03:40:42;98.73;;;87.80;;
9739;SDS011;4909;42.680;26.324;2023-10-19T03:43:16;99.67;;;82.87;;
9739;SDS011;4909;42.680;26.324;2023-10-19T03:45:46;100.00;;;84.07;;
9739;SDS011;4909;42.680;26.324;2023-10-19T03:48:17;101.63;;;84.80;;
9739;SDS011;4909;42.680;26.324;2023-10-19T03:50:52;102.63;;;86.43;;
9739;SDS011;4909;42.680;26.324;2023-10-19T03:53:22;99.40;;;83.50;;
9739;SDS011;4909;42.680;26.324;2023-10-19T03:55:49;101.83;;;85.40;;
9739;SDS011;4909;42.680;26.324;2023-10-19T03:58:17;100.30;;;85.37;;
9739;SDS011;4909;42.680;26.324;2023-10-19T04:00:46;99.60;;;83.90;;
9739;SDS011;4909;42.680;26.324;2023-10-19T04:03:14;100.70;;;82.80;;
9739;SDS011;4909;42.680;26.324;2023-10-19T04:05:42;100.57;;;83.60;;
9739;SDS011;4909;42.680;26.324;2023-10-19T04:08:12;105.13;;;86.63;;
9739;SDS011;4909;42.680;26.324;2023-10-19T04:10:41;96.23;;;82.93;;
9739;SDS011;4909;42.680;26.324;2023-10-19T04:13:12;97.13;;;82.27;;
9739;SDS011;4909;42.680;26.324;2023-10-19T04:15:39;99.67;;;87.13;;
9739;SDS011;4909;42.680;26.324;2023-10-19T04:18:07;95.83;;;82.70;;
9739;SDS011;4909;42.680;26.324;2023-10-19T04:20:37;99.57;;;84.27;;
9739;SDS011;4909;42.680;26.324;2023-10-19T04:23:20;95.50;;;81.20;;
9739;SDS011;4909;42.680;26.324;2023-10-19T04:25:53;100.60;;;82.03;;
9739;SDS011;4909;42.680;26.324;2023-10-19T04:28:23;97.60;;;83.63;;
9739;SDS011;4909;42.680;26.324;2023-10-19T04:30:59;98.83;;;83.47;;
9739;SDS011;4909;42.680;26.324;2023-10-19T04:33:31;94.73;;;79.37;;
9739;SDS011;4909;42.680;26.324;2023-10-19T04:35:59;98.37;;;82.53;;
9739;SDS011;4909;42.680;26.324;2023-10-19T04:38:26;100.63;;;82.27;;
9739;SDS011;4909;42.680;26.324;2023-10-19T04:41:04;98.27;;;81.13;;
9739;SDS011;4909;42.680;26.324;2023-10-19T04:43:33;99.27;;;81.23;;
9739;SDS011;4909;42.680;26.324;2023-10-19T04:46:04;105.63;;;85.60;;
9739;SDS011;4909;42.680;26.324;2023-10-19T04:48:36;109.20;;;88.73;;
9739;SDS011;4909;42.680;26.324;2023-10-19T04:51:05;102.13;;;82.23;;
9739;SDS011;4909;42.680;26.324;2023-10-19T04:53:32;100.03;;;82.70;;
9739;SDS011;4909;42.680;26.324;2023-10-19T04:55:59;100.30;;;85.80;;
9739;SDS011;4909;42.680;26.324;2023-10-19T04:58:28;99.23;;;81.50;;
9739;SDS011;4909;42.680;26.324;2023-10-19T05:00:55;103.80;;;81.93;;
9739;SDS011;4909;42.680;26.324;2023-10-19T05:03:24;97.83;;;84.17;;
9739;SDS011;4909;42.680;26.324;2023-10-19T05:05:51;99.80;;;83.23;;
9739;SDS011;4909;42.680;26.324;2023-10-19T05:08:18;100.17;;;84.17;;
9739;SDS011;4909;42.680;26.324;2023-10-19T05:10:45;102.73;;;87.60;;
9739;SDS011;4909;42.680;26.324;2023-10-19T05:13:13;98.83;;;82.43;;
9739;SDS011;4909;42.680;26.324;2023-10-19T05:15:42;99.33;;;81.73;;
9739;SDS011;4909;42.680;26.324;2023-10-19T05:18:09;99.10;;;82.27;;
9739;SDS011;4909;42.680;26.324;2023-10-19T05:20:37;103.47;;;89.30;;
9739;SDS011;4909;42.680;26.324;2023-10-19T05:23:05;105.70;;;87.97;;
9739;SDS011;4909;42.680;26.324;2023-10-19T05:25:33;108.43;;;90.90;;
9739;SDS011;4909;42.680;26.324;2023-10-19T05:28:01;106.67;;;87.50;;
9739;SDS011;4909;42.680;26.324;2023-10-19T05:30:28;109.27;;;87.90;;
9739;SDS011;4909;42.680;26.324;2023-10-19T05:32:56;107.70;;;90.40;;
9739;SDS011;4909;42.680;26.324;2023-10-19T05:35:23;112.97;;;90.00;;
9739;SDS011;4909;42.680;26.324;2023-10-19T05:37:51;112.40;;;93.57;;
9739;SDS011;4909;42.680;26.324;2023-10-19T05:40:18;112.63;;;93.80;;
9739;SDS011;4909;42.680;26.324;2023-10-19T05:42:45;122.80;;;97.20;;
9739;SDS011;4909;42.680;26.324;2023-10-19T05:45:12;120.87;;;98.40;;
9739;SDS011;4909;42.680;26.324;2023-10-19T05:47:43;128.93;;;103.03;;
9739;SDS011;4909;42.680;26.324;2023-10-19T05:50:11;119.53;;;97.23;;
9739;SDS011;4909;42.680;26.324;2023-10-19T05:52:40;121.13;;;101.60;;
9739;SDS011;4909;42.680;26.324;2023-10-19T05:55:08;121.27;;;101.23;;
9739;SDS011;4909;42.680;26.324;2023-10-19T05:57:36;122.17;;;103.43;;
9739;SDS011;4909;42.680;26.324;2023-10-19T06:00:06;125.50;;;101.43;;
9739;SDS011;4909;42.680;26.324;2023-10-19T06:02:38;126.13;;;104.93;;
9739;SDS011;4909;42.680;26.324;2023-10-19T06:05:06;131.27;;;106.67;;
9739;SDS011;4909;42.680;26.324;2023-10-19T06:07:34;135.03;;;106.33;;
9739;SDS011;4909;42.680;26.324;2023-10-19T06:10:01;136.13;;;109.67;;
9739;SDS011;4909;42.680;26.324;2023-10-19T06:12:31;136.60;;;110.53;;
9739;SDS011;4909;42.680;26.324;2023-10-19T06:14:59;133.83;;;111.97;;
9739;SDS011;4909;42.680;26.324;2023-10-19T06:17:28;142.97;;;123.87;;
9739;SDS011;4909;42.680;26.324;2023-10-19T06:19:55;138.57;;;115.20;;
9739;SDS011;4909;42.680;26.324;2023-10-19T06:22:22;143.97;;;119.17;;
9739;SDS011;4909;42.680;26.324;2023-10-19T06:24:50;146.37;;;119.90;;
9739;SDS011;4909;42.680;26.324;2023-10-19T06:27:17;149.30;;;124.83;;
9739;SDS011;4909;42.680;26.324;2023-10-19T06:29:44;146.00;;;122.47;;
9739;SDS011;4909;42.680;26.324;2023-10-19T06:32:11;152.77;;;127.93;;
9739;SDS011;4909;42.680;26.324;2023-10-19T06:34:39;167.90;;;136.33;;
9739;SDS011;4909;42.680;26.324;2023-10-19T06:37:07;165.73;;;135.10;;
9739;SDS011;4909;42.680;26.324;2023-10-19T06:39:35;178.67;;;151.00;;
9739;SDS011;4909;42.680;26.324;2023-10-19T06:42:07;186.53;;;156.40;;
9739;SDS011;4909;42.680;26.324;2023-10-19T06:44:40;189.87;;;158.30;;
9739;SDS011;4909;42.680;26.324;2023-10-19T06:47:09;188.90;;;157.17;;
9739;SDS011;4909;42.680;26.324;2023-10-19T06:49:36;195.43;;;165.53;;
9739;SDS011;4909;42.680;26.324;2023-10-19T06:52:03;205.80;;;182.00;;
9739;SDS011;4909;42.680;26.324;2023-10-19T06:54:31;204.97;;;178.77;;
9739;SDS011;4909;42.680;26.324;2023-10-19T06:56:58;218.27;;;189.10;;
9739;SDS011;4909;42.680;26.324;2023-10-19T06:59:29;221.47;;;197.43;;
9739;SDS011;4909;42.680;26.324;2023-10-19T07:01:58;220.57;;;196.03;;
9739;SDS011;4909;42.680;26.324;2023-10-19T07:04:27;230.27;;;205.00;;
9739;SDS011;4909;42.680;26.324;2023-10-19T07:06:54;229.33;;;204.67;;
9739;SDS011;4909;42.680;26.324;2023-10-19T07:09:22;232.83;;;208.20;;
9739;SDS011;4909;42.680;26.324;2023-10-19T07:11:49;231.90;;;206.80;;
9739;SDS011;4909;42.680;26.324;2023-10-19T07:14:18;246.20;;;219.40;;
9739;SDS011;4909;42.680;26.324;2023-10-19T07:16:49;255.03;;;227.53;;
9739;SDS011;4909;42.680;26.324;2023-10-19T07:19:17;258.43;;;230.13;;
9739;SDS011;4909;42.680;26.324;2023-10-19T07:21:45;264.80;;;236.03;;
9739;SDS011;4909;42.680;26.324;2023-10-19T07:24:18;273.93;;;243.97;;
9739;SDS011;4909;42.680;26.324;2023-10-19T07:26:49;277.87;;;248.37;;
9739;SDS011;4909;42.680;26.324;2023-10-19T07:29:29;272.27;;;243.00;;
9739;SDS011;4909;42.680;26.324;2023-10-19T07:32:00;287.77;;;257.30;;
9739;SDS011;4909;42.680;26.324;2023-10-19T07:34:30;294.80;;;263.57;;
9739;SDS011;4909;42.680;26.324;2023-10-19T07:36:58;300.80;;;269.53;;
9739;SDS011;4909;42.680;26.324;2023-10-19T07:39:25;306.53;;;274.57;;
9739;SDS011;4909;42.680;26.324;2023-10-19T07:41:54;307.13;;;275.23;;
9739;SDS011;4909;42.680;26.324;2023-10-19T07:44:21;309.83;;;276.67;;
9739;SDS011;4909;42.680;26.324;2023-10-19T07:46:48;330.60;;;296.37;;
9739;SDS011;4909;42.680;26.324;2023-10-19T07:49:17;340.10;;;305.00;;
9739;SDS011;4909;42.680;26.324;2023-10-19T07:51:45;341.53;;;305.90;;
9739;SDS011;4909;42.680;26.324;2023-10-19T07:54:13;373.80;;;336.63;;
9739;SDS011;4909;42.680;26.324;2023-10-19T07:56:39;386.20;;;348.03;;
9739;SDS011;4909;42.680;26.324;2023-10-19T07:59:07;393.20;;;354.40;;
9739;SDS011;4909;42.680;26.324;2023-10-19T08:01:34;398.13;;;359.17;;
9739;SDS011;4909;42.680;26.324;2023-10-19T08:04:01;417.73;;;378.10;;
9739;SDS011;4909;42.680;26.324;2023-10-19T08:06:29;420.97;;;381.60;;
9739;SDS011;4909;42.680;26.324;2023-10-19T08:08:57;434.77;;;395.00;;
9739;SDS011;4909;42.680;26.324;2023-10-19T08:11:24;440.57;;;400.50;;
9739;SDS011;4909;42.680;26.324;2023-10-19T08:13:51;448.40;;;408.00;;
9739;SDS011;4909;42.680;26.324;2023-10-19T08:16:20;489.47;;;448.33;;
9739;SDS011;4909;42.680;26.324;2023-10-19T08:18:47;476.40;;;435.80;;
9739;SDS011;4909;42.680;26.324;2023-10-19T08:21:15;502.20;;;461.07;;
9739;SDS011;4909;42.680;26.324;2023-10-19T08:23:44;508.40;;;466.83;;
9739;SDS011;4909;42.680;26.324;2023-10-19T08:26:13;528.50;;;486.93;;
9739;SDS011;4909;42.680;26.324;2023-10-19T08:28:40;503.93;;;462.60;;
9739;SDS011;4909;42.680;26.324;2023-10-19T08:31:07;518.37;;;476.73;;
9739;SDS011;4909;42.680;26.324;2023-10-19T08:33:35;529.77;;;487.83;;
9739;SDS011;4909;42.680;26.324;2023-10-19T08:36:04;533.13;;;491.53;;
9739;SDS011;4909;42.680;26.324;2023-10-19T08:38:31;528.23;;;486.83;;
9739;SDS011;4909;42.680;26.324;2023-10-19T08:41:00;502.63;;;461.50;;
9739;SDS011;4909;42.680;26.324;2023-10-19T08:43:28;503.17;;;462.00;;
9739;SDS011;4909;42.680;26.324;2023-10-19T08:45:58;506.23;;;464.73;;
9739;SDS011;4909;42.680;26.324;2023-10-19T08:48:26;492.83;;;451.83;;
9739;SDS011;4909;42.680;26.324;2023-10-19T08:50:54;478.70;;;438.13;;
9739;SDS011;4909;42.680;26.324;2023-10-19T08:53:22;485.77;;;444.93;;
9739;SDS011;4909;42.680;26.324;2023-10-19T08:55:50;513.13;;;471.77;;
9739;SDS011;4909;42.680;26.324;2023-10-19T08:58:21;496.00;;;455.00;;
9739;SDS011;4909;42.680;26.324;2023-10-19T09:00:48;520.00;;;478.50;;
9739;SDS011;4909;42.680;26.324;2023-10-19T09:03:19;517.87;;;476.27;;
9739;SDS011;4909;42.680;26.324;2023-10-19T09:05:47;514.80;;;473.33;;
9739;SDS011;4909;42.680;26.324;2023-10-19T09:08:14;497.33;;;456.40;;
9739;SDS011;4909;42.680;26.324;2023-10-19T09:10:42;493.07;;;452.37;;
9739;SDS011;4909;42.680;26.324;2023-10-19T09:13:11;487.27;;;446.53;;
9739;SDS011;4909;42.680;26.324;2023-10-19T09:15:42;471.57;;;430.47;;
9739;SDS011;4909;42.680;26.324;2023-10-19T09:18:12;462.97;;;422.73;;
9739;SDS011;4909;42.680;26.324;2023-10-19T09:20:40;448.13;;;408.57;;
9739;SDS011;4909;42.680;26.324;2023-10-19T09:23:17;430.20;;;390.90;;
9739;SDS011;4909;42.680;26.324;2023-10-19T09:25:46;414.93;;;376.40;;
9739;SDS011;4909;42.680;26.324;2023-10-19T09:28:13;416.53;;;378.30;;
9739;SDS011;4909;42.680;26.324;2023-10-19T09:30:42;403.13;;;365.30;;
9739;SDS011;4909;42.680;26.324;2023-10-19T09:33:09;386.77;;;349.57;;
9739;SDS011;4909;42.680;26.324;2023-10-19T09:35:39;386.90;;;350.30;;
9739;SDS011;4909;42.680;26.324;2023-10-19T09:38:08;378.07;;;342.33;;
9739;SDS011;4909;42.680;26.324;2023-10-19T09:40:35;377.83;;;341.53;;
9739;SDS011;4909;42.680;26.324;2023-10-19T09:43:04;360.63;;;325.13;;
9739;SDS011;4909;42.680;26.324;2023-10-19T09:45:36;351.17;;;316.77;;
9739;SDS011;4909;42.680;26.324;2023-10-19T09:48:07;347.63;;;313.73;;
9739;SDS011;4909;42.680;26.324;2023-10-19T09:50:42;336.90;;;303.30;;
9739;SDS011;4909;42.680;26.324;2023-10-19T09:53:10;330.80;;;297.23;;
9739;SDS011;4909;42.680;26.324;2023-10-19T09:55:38;334.53;;;301.70;;
9739;SDS011;4909;42.680;26.324;2023-10-19T09:58:10;324.90;;;292.70;;
9739;SDS011;4909;42.680;26.324;2023-10-19T10:00:43;324.90;;;292.83;;
9739;SDS011;4909;42.680;26.324;2023-10-19T10:06:09;307.07;;;275.03;;
9739;SDS011;4909;42.680;26.324;2023-10-19T10:08:38;306.33;;;275.40;;
9739;SDS011;4909;42.680;26.324;2023-10-19T10:13:49;295.53;;;265.90;;
9739;SDS011;4909;42.680;26.324;2023-10-19T10:16:19;321.10;;;291.13;;
9739;SDS011;4909;42.680;26.324;2023-10-19T10:18:49;277.87;;;249.83;;
9739;SDS011;4909;42.680;26.324;2023-10-19T10:21:19;273.03;;;245.13;;
9739;SDS011;4909;42.680;26.324;2023-10-19T10:23:47;270.47;;;241.60;;
9739;SDS011;4909;42.680;26.324;2023-10-19T10:26:16;279.13;;;251.17;;
9739;SDS011;4909;42.680;26.324;2023-10-19T10:28:47;263.97;;;236.83;;
9739;SDS011;4909;42.680;26.324;2023-10-19T10:31:19;278.50;;;251.30;;
9739;SDS011;4909;42.680;26.324;2023-10-19T10:33:48;269.90;;;242.80;;
9739;SDS011;4909;42.680;26.324;2023-10-19T10:36:16;255.00;;;228.30;;
9739;SDS011;4909;42.680;26.324;2023-10-19T10:38:45;264.87;;;237.90;;
9739;SDS011;4909;42.680;26.324;2023-10-19T10:41:19;275.97;;;248.23;;
9739;SDS011;4909;42.680;26.324;2023-10-19T10:43:50;250.63;;;224.30;;
9739;SDS011;4909;42.680;26.324;2023-10-19T10:46:19;261.53;;;234.83;;
9739;SDS011;4909;42.680;26.324;2023-10-19T10:48:47;246.70;;;220.60;;
9739;SDS011;4909;42.680;26.324;2023-10-19T10:51:15;243.30;;;217.23;;
9739;SDS011;4909;42.680;26.324;2023-10-19T10:53:44;255.57;;;229.07;;
9739;SDS011;4909;42.680;26.324;2023-10-19T10:56:13;248.90;;;222.77;;
9739;SDS011;4909;42.680;26.324;2023-10-19T10:58:40;259.80;;;233.00;;
9739;SDS011;4909;42.680;26.324;2023-10-19T11:01:07;246.50;;;220.33;;
9739;SDS011;4909;42.680;26.324;2023-10-19T11:03:35;251.20;;;225.10;;
9739;SDS011;4909;42.680;26.324;2023-10-19T11:06:03;254.67;;;228.40;;
9739;SDS011;4909;42.680;26.324;2023-10-19T11:08:33;242.47;;;216.90;;
9739;SDS011;4909;42.680;26.324;2023-10-19T11:11:05;254.97;;;228.83;;
9739;SDS011;4909;42.680;26.324;2023-10-19T11:13:36;243.30;;;217.87;;
9739;SDS011;4909;42.680;26.324;2023-10-19T11:16:04;244.53;;;219.43;;
9739;SDS011;4909;42.680;26.324;2023-10-19T11:18:33;254.93;;;229.00;;
9739;SDS011;4909;42.680;26.324;2023-10-19T11:21:02;245.23;;;219.73;;
9739;SDS011;4909;42.680;26.324;2023-10-19T11:23:38;249.47;;;223.73;;
9739;SDS011;4909;42.680;26.324;2023-10-19T11:26:09;243.17;;;218.20;;
9739;SDS011;4909;42.680;26.324;2023-10-19T11:28:37;242.10;;;216.80;;
9739;SDS011;4909;42.680;26.324;2023-10-19T11:31:16;258.30;;;232.70;;
9739;SDS011;4909;42.680;26.324;2023-10-19T11:33:44;243.40;;;218.17;;
9739;SDS011;4909;42.680;26.324;2023-10-19T11:36:13;251.37;;;225.30;;
9739;SDS011;4909;42.680;26.324;2023-10-19T11:38:41;253.77;;;228.00;;
9739;SDS011;4909;42.680;26.324;2023-10-19T11:41:10;255.50;;;229.67;;
9739;SDS011;4909;42.680;26.324;2023-10-19T11:43:38;248.23;;;222.73;;
9739;SDS011;4909;42.680;26.324;2023-10-19T11:46:05;245.80;;;220.20;;
9739;SDS011;4909;42.680;26.324;2023-10-19T11:48:32;251.30;;;225.83;;
9739;SDS011;4909;42.680;26.324;2023-10-19T11:51:01;247.77;;;222.37;;
9739;SDS011;4909;42.680;26.324;2023-10-19T11:53:32;259.73;;;233.27;;
9739;SDS011;4909;42.680;26.324;2023-10-19T11:56:00;245.50;;;219.83;;
9739;SDS011;4909;42.680;26.324;2023-10-19T11:58:32;251.83;;;226.37;;
9739;SDS011;4909;42.680;26.324;2023-10-19T12:01:00;254.90;;;228.63;;
9739;SDS011;4909;42.680;26.324;2023-10-19T12:03:28;258.57;;;232.10;;
9739;SDS011;4909;42.680;26.324;2023-10-19T12:05:55;248.40;;;222.10;;
9739;SDS011;4909;42.680;26.324;2023-10-19T12:08:22;265.17;;;238.37;;
9739;SDS011;4909;42.680;26.324;2023-10-19T12:10:50;256.20;;;229.77;;
9739;SDS011;4909;42.680;26.324;2023-10-19T12:13:17;263.20;;;235.73;;
9739;SDS011;4909;42.680;26.324;2023-10-19T12:15:45;256.03;;;229.80;;
9739;SDS011;4909;42.680;26.324;2023-10-19T12:18:18;270.80;;;244.13;;
9739;SDS011;4909;42.680;26.324;2023-10-19T12:20:46;261.43;;;234.50;;
9739;SDS011;4909;42.680;26.324;2023-10-19T12:23:13;259.07;;;232.57;;
9739;SDS011;4909;42.680;26.324;2023-10-19T12:25:41;275.63;;;248.10;;
9739;SDS011;4909;42.680;26.324;2023-10-19T12:28:08;268.30;;;241.50;;
9739;SDS011;4909;42.680;26.324;2023-10-19T12:30:39;270.10;;;243.23;;
9739;SDS011;4909;42.680;26.324;2023-10-19T12:33:08;258.73;;;232.50;;
9739;SDS011;4909;42.680;26.324;2023-10-19T12:35:37;254.80;;;228.60;;
9739;SDS011;4909;42.680;26.324;2023-10-19T12:38:13;264.57;;;238.17;;
9739;SDS011;4909;42.680;26.324;2023-10-19T12:40:44;268.07;;;241.40;;
9739;SDS011;4909;42.680;26.324;2023-10-19T12:43:12;264.73;;;237.60;;
9739;SDS011;4909;42.680;26.324;2023-10-19T12:45:40;252.57;;;226.77;;
9739;SDS011;4909;42.680;26.324;2023-10-19T12:48:10;266.00;;;239.73;;
9739;SDS011;4909;42.680;26.324;2023-10-19T12:50:37;266.60;;;239.97;;
9739;SDS011;4909;42.680;26.324;2023-10-19T12:53:06;261.93;;;235.87;;
9739;SDS011;4909;42.680;26.324;2023-10-19T12:55:33;263.57;;;237.73;;
9739;SDS011;4909;42.680;26.324;2023-10-19T12:58:02;256.10;;;230.50;;
9739;SDS011;4909;42.680;26.324;2023-10-19T13:00:34;254.27;;;228.17;;
9739;SDS011;4909;42.680;26.324;2023-10-19T13:03:10;253.13;;;227.53;;
9739;SDS011;4909;42.680;26.324;2023-10-19T13:05:41;245.40;;;220.67;;
9739;SDS011;4909;42.680;26.324;2023-10-19T13:08:09;248.80;;;223.80;;
9739;SDS011;4909;42.680;26.324;2023-10-19T13:10:38;253.70;;;228.53;;
9739;SDS011;4909;42.680;26.324;2023-10-19T13:13:08;252.37;;;226.83;;
9739;SDS011;4909;42.680;26.324;2023-10-19T13:15:37;239.03;;;213.80;;
9739;SDS011;4909;42.680;26.324;2023-10-19T13:18:05;243.90;;;218.43;;
9739;SDS011;4909;42.680;26.324;2023-10-19T13:20:36;252.27;;;226.10;;
9739;SDS011;4909;42.680;26.324;2023-10-19T13:23:04;245.97;;;221.30;;
9739;SDS011;4909;42.680;26.324;2023-10-19T13:25:36;245.63;;;220.23;;
9739;SDS011;4909;42.680;26.324;2023-10-19T13:28:12;247.33;;;221.73;;
9739;SDS011;4909;42.680;26.324;2023-10-19T13:30:40;252.80;;;226.80;;
9739;SDS011;4909;42.680;26.324;2023-10-19T13:33:08;245.60;;;220.00;;
9739;SDS011;4909;42.680;26.324;2023-10-19T13:35:38;243.73;;;218.57;;
9739;SDS011;4909;42.680;26.324;2023-10-19T13:38:06;237.70;;;212.90;;
9739;SDS011;4909;42.680;26.324;2023-10-19T13:40:34;246.57;;;221.03;;
9739;SDS011;4909;42.680;26.324;2023-10-19T13:43:01;246.70;;;221.33;;
9739;SDS011;4909;42.680;26.324;2023-10-19T13:45:31;254.70;;;228.97;;
9739;SDS011;4909;42.680;26.324;2023-10-19T13:47:58;268.00;;;241.40;;
9739;SDS011;4909;42.680;26.324;2023-10-19T13:50:25;262.70;;;236.57;;
9739;SDS011;4909;42.680;26.324;2023-10-19T13:52:54;259.07;;;232.40;;
9739;SDS011;4909;42.680;26.324;2023-10-19T13:55:22;258.97;;;232.10;;
9739;SDS011;4909;42.680;26.324;2023-10-19T13:57:49;253.27;;;227.40;;
9739;SDS011;4909;42.680;26.324;2023-10-19T14:00:17;259.83;;;233.77;;
9739;SDS011;4909;42.680;26.324;2023-10-19T14:02:50;259.33;;;233.27;;
9739;SDS011;4909;42.680;26.324;2023-10-19T14:05:17;251.77;;;225.87;;
9739;SDS011;4909;42.680;26.324;2023-10-19T14:07:45;258.27;;;232.07;;
9739;SDS011;4909;42.680;26.324;2023-10-19T14:10:14;246.83;;;221.20;;
9739;SDS011;4909;42.680;26.324;2023-10-19T14:12:41;279.33;;;251.73;;
9739;SDS011;4909;42.680;26.324;2023-10-19T14:15:12;259.27;;;233.30;;
9739;SDS011;4909;42.680;26.324;2023-10-19T14:17:40;255.37;;;229.33;;
9739;SDS011;4909;42.680;26.324;2023-10-19T14:20:07;244.87;;;219.20;;
9739;SDS011;4909;42.680;26.324;2023-10-19T14:22:38;239.60;;;214.50;;
9739;SDS011;4909;42.680;26.324;2023-10-19T14:25:06;236.83;;;211.67;;
9739;SDS011;4909;42.680;26.324;2023-10-19T14:27:38;243.97;;;218.97;;
9739;SDS011;4909;42.680;26.324;2023-10-19T14:30:07;258.37;;;232.20;;